Time;durP1;ratioP1;P1;durP2;ratioP2;P2;SDS_P1;SDS_P2;PMS_P1;PMS_P2;Temp;Humidity;BMP_temperature;BMP_pressure;BME280_temperature;BME280_humidity;BME280_pressure;Samples;Min_cycle;Max_cycle;Signal;HPM_P1;HPM_P2
2023/01/25 00:01:53;;;;;;;2.90;2.40;;;8.10;96.70;;;;;;4973367;28;20562;-74
2023/01/25 00:04:22;;;;;;;2.97;2.38;;;8.10;96.70;;;;;;4953912;28;20692;-73
2023/01/25 00:06:50;;;;;;;3.42;2.30;;;8.00;96.70;;;;;;4958287;28;20043;-73
2023/01/25 00:09:19;;;;;;;3.53;2.60;;;7.90;96.70;;;;;;4964635;28;20433;-73
2023/01/25 00:11:48;;;;;;;3.33;2.30;;;8.00;96.70;;;;;;4979387;28;20114;-73
2023/01/25 00:14:16;;;;;;;4.93;2.40;;;8.00;96.70;;;;;;4964536;28;20126;-73
2023/01/25 00:16:45;;;;;;;2.63;2.00;;;8.00;96.70;;;;;;4960641;28;20587;-73
2023/01/25 00:19:13;;;;;;;3.05;2.58;;;8.10;96.70;;;;;;4943230;28;20436;-74
2023/01/25 00:21:41;;;;;;;3.58;2.30;;;8.10;96.70;;;;;;4961431;28;20050;-73
2023/01/25 00:24:13;;;;;;;4.18;2.75;;;8.10;96.70;;;;;;4958996;28;20394;-74
2023/01/25 00:26:45;;;;;;;3.30;2.45;;;8.10;96.70;;;;;;4962409;28;20146;-73
2023/01/25 00:29:15;;;;;;;3.63;2.40;;;8.10;96.70;;;;;;4964657;28;20045;-73
2023/01/25 00:31:57;;;;;;;2.60;2.22;;;8.10;96.70;;;;;;4962489;28;20149;-74
2023/01/25 00:34:43;;;;;;;3.08;2.25;;;8.20;96.70;;;;;;4961710;28;20058;-75
2023/01/25 00:37:27;;;;;;;3.85;2.38;;;8.20;96.70;;;;;;4960038;28;20060;-74
2023/01/25 00:39:57;;;;;;;2.65;1.92;;;8.10;96.70;;;;;;4960177;28;20058;-74
2023/01/25 00:42:35;;;;;;;2.65;2.00;;;8.10;96.70;;;;;;4963344;28;20098;-74
2023/01/25 00:45:07;;;;;;;2.22;2.03;;;8.10;96.70;;;;;;4979207;28;20230;-74
2023/01/25 00:47:36;;;;;;;3.35;2.38;;;8.10;96.70;;;;;;4951840;28;20055;-74
2023/01/25 00:50:05;;;;;;;4.05;2.80;;;8.10;96.70;;;;;;4945802;28;20051;-74
2023/01/25 00:52:33;;;;;;;4.30;2.75;;;8.10;96.70;;;;;;4961826;28;20058;-74
2023/01/25 00:55:02;;;;;;;3.67;2.55;;;8.00;96.70;;;;;;4951031;28;20122;-74
2023/01/25 00:57:31;;;;;;;4.63;2.80;;;8.00;96.70;;;;;;4943901;28;20047;-74
2023/01/25 01:00:00;;;;;;;3.88;2.83;;;7.90;96.70;;;;;;4943826;28;20051;-73
2023/01/25 01:02:30;;;;;;;4.40;3.25;;;7.90;96.70;;;;;;4950494;28;20050;-73
2023/01/25 01:04:59;;;;;;;4.28;3.00;;;7.80;96.70;;;;;;4977754;28;20046;-73
2023/01/25 01:07:27;;;;;;;4.25;2.92;;;7.80;96.70;;;;;;4954222;28;20059;-74
2023/01/25 01:09:55;;;;;;;4.82;3.13;;;7.80;96.70;;;;;;4939278;28;20047;-73
2023/01/25 01:12:24;;;;;;;4.20;3.45;;;7.80;96.70;;;;;;4946753;28;20252;-74
2023/01/25 01:14:52;;;;;;;2.97;2.28;;;7.80;96.70;;;;;;4946245;28;20142;-74
2023/01/25 01:17:20;;;;;;;3.58;2.33;;;7.80;96.70;;;;;;4944694;28;20049;-74
2023/01/25 01:19:50;;;;;;;3.03;2.47;;;7.80;96.70;;;;;;4945090;28;20685;-73
2023/01/25 01:22:18;;;;;;;3.58;2.40;;;7.80;96.70;;;;;;4945533;28;20498;-74
2023/01/25 01:24:48;;;;;;;4.55;2.30;;;7.80;96.70;;;;;;4948324;28;20047;-74
2023/01/25 01:27:16;;;;;;;2.90;2.50;;;7.80;96.70;;;;;;4950995;28;20058;-74
2023/01/25 01:29:44;;;;;;;3.90;2.80;;;7.80;96.70;;;;;;4962089;28;20183;-75
2023/01/25 01:32:12;;;;;;;3.63;2.58;;;7.80;96.70;;;;;;4962864;28;20043;-73
2023/01/25 01:34:41;;;;;;;3.75;2.60;;;7.80;96.70;;;;;;4945820;28;21108;-73
2023/01/25 01:37:10;;;;;;;2.80;2.17;;;7.80;96.70;;;;;;4950837;28;20541;-73
2023/01/25 01:39:39;;;;;;;2.45;2.25;;;7.80;96.70;;;;;;4944441;28;20047;-73
2023/01/25 01:42:07;;;;;;;3.17;2.60;;;7.80;96.70;;;;;;4947478;28;20566;-72
2023/01/25 01:44:44;;;;;;;2.85;2.22;;;7.80;96.70;;;;;;4970484;28;20071;-73
2023/01/25 01:47:17;;;;;;;2.92;2.50;;;7.80;96.70;;;;;;4942010;28;21039;-71
2023/01/25 01:49:52;;;;;;;3.70;2.63;;;7.80;96.70;;;;;;4962237;28;20059;-72
2023/01/25 01:52:26;;;;;;;3.38;2.22;;;7.90;96.70;;;;;;4951432;28;20142;-73
2023/01/25 01:54:58;;;;;;;2.63;2.05;;;7.90;96.70;;;;;;4943135;28;20102;-72
2023/01/25 01:57:31;;;;;;;2.50;2.03;;;7.80;96.70;;;;;;4944440;28;20393;-72
2023/01/25 02:00:04;;;;;;;3.85;2.17;;;7.80;96.70;;;;;;4943776;28;20315;-73
2023/01/25 02:02:42;;;;;;;3.00;2.05;;;7.70;96.70;;;;;;4956376;28;20682;-73
2023/01/25 02:05:16;;;;;;;2.67;2.08;;;7.70;96.70;;;;;;4959965;28;20141;-73
2023/01/25 02:07:47;;;;;;;1.60;1.40;;;7.80;96.70;;;;;;4962829;28;20052;-72
2023/01/25 02:10:20;;;;;;;2.42;1.40;;;7.80;96.70;;;;;;4961526;28;20533;-73
2023/01/25 02:12:52;;;;;;;1.23;0.95;;;7.80;96.70;;;;;;4949828;28;20059;-73
2023/01/25 02:15:20;;;;;;;1.70;1.10;;;7.80;96.70;;;;;;4944799;28;20047;-73
2023/01/25 02:17:49;;;;;;;1.58;1.10;;;7.90;96.70;;;;;;4961291;28;20047;-73
2023/01/25 02:20:25;;;;;;;2.78;1.30;;;7.90;96.70;;;;;;4947430;28;20073;-73
2023/01/25 02:23:00;;;;;;;2.15;1.15;;;7.90;96.70;;;;;;4956271;28;20077;-73
2023/01/25 02:25:30;;;;;;;1.35;1.05;;;7.90;96.70;;;;;;4959306;28;20046;-73
2023/01/25 02:28:06;;;;;;;1.70;1.20;;;7.90;96.70;;;;;;4957383;28;20040;-73
2023/01/25 02:30:34;;;;;;;1.30;1.17;;;7.90;96.70;;;;;;4961701;28;20571;-73
2023/01/25 02:33:02;;;;;;;1.13;0.75;;;7.80;96.70;;;;;;4959399;28;20130;-73
2023/01/25 02:35:39;;;;;;;1.35;0.70;;;7.90;96.70;;;;;;4961432;28;20050;-73
2023/01/25 02:38:10;;;;;;;1.10;0.73;;;7.90;96.70;;;;;;4943513;28;20174;-74
2023/01/25 02:40:46;;;;;;;1.85;1.00;;;7.90;96.70;;;;;;4945415;28;20046;-74
2023/01/25 02:43:15;;;;;;;1.17;0.77;;;7.90;96.70;;;;;;4960709;28;20795;-73
2023/01/25 02:45:48;;;;;;;1.65;1.10;;;7.90;96.70;;;;;;4965099;28;20047;-74
2023/01/25 02:48:16;;;;;;;1.42;0.90;;;7.90;96.70;;;;;;4966050;28;20086;-73
2023/01/25 02:50:44;;;;;;;3.10;1.38;;;7.90;96.70;;;;;;4954829;28;20078;-74
2023/01/25 02:53:12;;;;;;;2.10;1.33;;;7.90;96.70;;;;;;4959892;28;20499;-74
2023/01/25 02:55:41;;;;;;;1.77;1.10;;;7.80;96.70;;;;;;4931281;29;20046;-73
2023/01/25 02:58:09;;;;;;;2.75;1.33;;;7.80;96.70;;;;;;4961848;28;20090;-73
2023/01/25 03:00:39;;;;;;;2.60;1.30;;;7.80;96.70;;;;;;4963811;28;20416;-74
2023/01/25 03:03:07;;;;;;;2.15;1.27;;;7.80;96.70;;;;;;4965377;28;20050;-74
2023/01/25 03:05:35;;;;;;;1.45;0.98;;;7.80;96.70;;;;;;4963788;28;20050;-73
2023/01/25 03:08:03;;;;;;;1.40;0.70;;;7.80;96.70;;;;;;4962330;28;20051;-73
2023/01/25 03:10:31;;;;;;;1.00;0.75;;;7.80;96.70;;;;;;4972917;28;20069;-73
2023/01/25 03:13:03;;;;;;;1.50;1.00;;;7.80;96.70;;;;;;4953015;28;20074;-74
2023/01/25 03:15:31;;;;;;;1.10;0.52;;;7.80;96.70;;;;;;4953591;28;20106;-73
2023/01/25 03:17:59;;;;;;;0.75;0.40;;;7.90;96.70;;;;;;4956494;28;20043;-73
2023/01/25 03:20:30;;;;;;;0.22;0.20;;;7.90;96.70;;;;;;4964398;28;20493;-74
2023/01/25 03:22:58;;;;;;;0.40;0.20;;;8.10;96.70;;;;;;4965173;28;20061;-73
2023/01/25 03:25:27;;;;;;;0.30;0.20;;;8.10;96.70;;;;;;4958961;28;20046;-73
2023/01/25 03:28:03;;;;;;;0.40;0.20;;;8.10;96.70;;;;;;4962849;28;20544;-74
2023/01/25 03:30:31;;;;;;;0.20;0.15;;;8.20;96.70;;;;;;4977349;28;20055;-73
2023/01/25 03:32:59;;;;;;;0.40;0.30;;;8.20;96.70;;;;;;4964194;28;20042;-73
2023/01/25 03:35:27;;;;;;;0.20;0.08;;;8.30;96.70;;;;;;4963599;28;20051;-74
2023/01/25 03:37:55;;;;;;;0.57;0.30;;;8.30;96.70;;;;;;4952217;28;20043;-74
2023/01/25 03:40:23;;;;;;;0.20;0.10;;;8.30;96.70;;;;;;4945873;28;20059;-73
2023/01/25 03:42:52;;;;;;;0.20;0.10;;;8.30;96.70;;;;;;4946493;28;20055;-74
2023/01/25 03:45:22;;;;;;;1.05;0.10;;;8.30;96.70;;;;;;4953621;28;20054;-74
2023/01/25 03:47:50;;;;;;;0.15;0.10;;;8.30;96.70;;;;;;4947867;28;20125;-73
2023/01/25 03:50:18;;;;;;;0.30;0.17;;;8.30;96.70;;;;;;4963580;28;20501;-74
2023/01/25 03:53:18;;;;;;;0.30;0.10;;;8.40;96.70;;;;;;4945101;28;20048;-74
2023/01/25 03:55:46;;;;;;;0.30;0.10;;;8.40;96.70;;;;;;4899101;29;20090;-74
2023/01/25 03:58:17;;;;;;;0.52;0.20;;;8.40;96.70;;;;;;4909262;29;20450;-73
2023/01/25 04:00:47;;;;;;;0.80;0.30;;;8.40;96.70;;;;;;4936554;28;20043;-74
2023/01/25 04:03:16;;;;;;;0.20;0.20;;;8.50;96.70;;;;;;4918488;29;20057;-74
2023/01/25 04:05:45;;;;;;;1.08;0.22;;;8.50;96.70;;;;;;4958907;28;20173;-74
2023/01/25 04:08:13;;;;;;;0.70;0.30;;;8.60;96.70;;;;;;4956542;28;20413;-74
2023/01/25 04:10:41;;;;;;;1.30;0.30;;;8.60;96.70;;;;;;4942099;28;20405;-74
2023/01/25 04:13:09;;;;;;;0.20;0.15;;;8.60;96.70;;;;;;4952279;28;20061;-74
2023/01/25 04:15:37;;;;;;;0.70;0.20;;;8.60;96.70;;;;;;4943746;28;20047;-75
2023/01/25 04:18:15;;;;;;;1.05;0.20;;;8.60;96.70;;;;;;4940745;29;20102;-74
2023/01/25 04:20:43;;;;;;;0.20;0.20;;;8.70;96.70;;;;;;4947867;28;20583;-74
2023/01/25 04:23:12;;;;;;;0.30;0.20;;;8.70;96.70;;;;;;4962389;28;20087;-75
2023/01/25 04:25:42;;;;;;;0.35;0.28;;;8.60;96.70;;;;;;4956032;28;20047;-74
2023/01/25 04:28:14;;;;;;;0.60;0.20;;;8.70;96.70;;;;;;4954192;28;20047;-74
2023/01/25 04:30:42;;;;;;;0.75;0.30;;;8.70;96.70;;;;;;4962617;28;20090;-74
2023/01/25 04:33:10;;;;;;;0.57;0.30;;;8.70;96.70;;;;;;4957815;28;20066;-73
2023/01/25 04:35:40;;;;;;;0.28;0.20;;;8.70;96.70;;;;;;4955845;28;20102;-74
2023/01/25 04:38:09;;;;;;;0.75;0.30;;;8.70;96.70;;;;;;4954188;28;20038;-74
2023/01/25 04:40:42;;;;;;;1.75;0.30;;;8.70;96.70;;;;;;4962453;28;20054;-74
2023/01/25 04:43:12;;;;;;;0.38;0.30;;;8.60;96.70;;;;;;4961169;28;20054;-74
2023/01/25 04:45:41;;;;;;;0.40;0.30;;;8.60;96.70;;;;;;4963121;28;20555;-74
2023/01/25 04:48:18;;;;;;;1.10;0.20;;;8.60;96.70;;;;;;4962275;28;20481;-73
2023/01/25 04:50:52;;;;;;;0.90;0.20;;;8.60;96.70;;;;;;4963002;28;20501;-74
2023/01/25 04:53:22;;;;;;;0.68;0.30;;;8.60;96.70;;;;;;4951642;28;20141;-74
2023/01/25 04:55:51;;;;;;;0.73;0.38;;;8.60;96.70;;;;;;4956941;28;20118;-74
2023/01/25 04:58:20;;;;;;;0.85;0.20;;;8.60;96.70;;;;;;4959074;28;20496;-73
2023/01/25 05:00:51;;;;;;;0.20;0.20;;;8.60;96.70;;;;;;4960184;28;20129;-74
2023/01/25 05:03:19;;;;;;;0.40;0.20;;;8.60;96.70;;;;;;4944574;28;20065;-74
2023/01/25 05:05:48;;;;;;;0.30;0.28;;;8.60;96.70;;;;;;4945697;28;20596;-74
2023/01/25 05:08:24;;;;;;;0.88;0.50;;;8.60;96.70;;;;;;4949138;28;20051;-72
2023/01/25 05:10:56;;;;;;;1.13;0.60;;;8.60;96.70;;;;;;4978079;28;20149;-75
2023/01/25 05:13:44;;;;;;;1.20;0.30;;;8.60;96.70;;;;;;4960022;28;20910;-74
2023/01/25 05:16:18;;;;;;;3.30;1.65;;;8.70;96.70;;;;;;4962150;28;20091;-73
2023/01/25 05:18:47;;;;;;;0.93;0.22;;;8.60;96.70;;;;;;4961994;28;20050;-73
2023/01/25 05:24:14;;;;;;;1.15;0.52;;;8.60;96.70;;;;;;4943774;28;20154;-74
2023/01/25 05:30:03;;;;;;;0.70;0.40;;;8.60;96.70;;;;;;4956843;28;20062;-75
2023/01/25 05:32:57;;;;;;;0.70;0.38;;;8.60;96.70;;;;;;4960264;28;20067;-74
2023/01/25 05:35:25;;;;;;;0.80;0.47;;;8.60;96.70;;;;;;4961699;28;20880;-74
2023/01/25 05:37:58;;;;;;;1.13;0.50;;;8.60;96.70;;;;;;4961401;28;20094;-73
2023/01/25 05:40:29;;;;;;;0.70;0.30;;;8.60;96.70;;;;;;4962387;28;20120;-74
2023/01/25 05:42:59;;;;;;;0.52;0.28;;;8.60;96.70;;;;;;4961834;28;20105;-74
2023/01/25 05:45:29;;;;;;;0.90;0.40;;;8.50;96.70;;;;;;4952891;28;20035;-74
2023/01/25 05:47:58;;;;;;;0.43;0.20;;;8.50;96.70;;;;;;4962360;28;20057;-74
2023/01/25 05:50:27;;;;;;;1.38;0.40;;;8.50;96.70;;;;;;4956457;28;20051;-74
2023/01/25 05:53:05;;;;;;;1.70;0.60;;;8.40;96.70;;;;;;4959982;28;20138;-74
2023/01/25 05:55:36;;;;;;;0.88;0.32;;;8.40;96.70;;;;;;4955610;28;20051;-74
2023/01/25 05:58:09;;;;;;;0.47;0.30;;;8.40;96.70;;;;;;4953326;28;20066;-74
2023/01/25 06:00:38;;;;;;;1.08;0.30;;;8.40;96.70;;;;;;4949417;28;20062;-74
2023/01/25 06:03:06;;;;;;;0.85;0.40;;;8.30;96.70;;;;;;4958863;28;20146;-74
2023/01/25 06:05:38;;;;;;;0.98;0.35;;;8.30;96.70;;;;;;4956541;28;20911;-75
2023/01/25 06:08:06;;;;;;;0.70;0.30;;;8.20;96.70;;;;;;4956164;28;20142;-74
2023/01/25 06:10:55;;;;;;;0.50;0.30;;;8.20;96.70;;;;;;4958448;28;20074;-75
2023/01/25 06:13:28;;;;;;;0.85;0.50;;;8.20;96.70;;;;;;4951976;28;20839;-74
2023/01/25 06:15:57;;;;;;;1.00;0.88;;;8.10;96.70;;;;;;4947976;28;20502;-74
2023/01/25 06:18:48;;;;;;;1.65;0.43;;;8.10;96.70;;;;;;4963425;28;20512;-74
2023/01/25 06:21:39;;;;;;;6.78;3.50;;;8.10;96.70;;;;;;4956308;28;20047;-74
2023/01/25 06:24:08;;;;;;;6.65;3.80;;;8.10;96.70;;;;;;4965087;28;20133;-74
2023/01/25 06:26:37;;;;;;;5.35;3.55;;;8.10;96.70;;;;;;4938315;29;20134;-74
2023/01/25 06:29:07;;;;;;;6.30;3.05;;;8.00;96.70;;;;;;4950390;28;20401;-74
2023/01/25 06:31:35;;;;;;;7.45;3.90;;;8.00;96.70;;;;;;4963993;28;20349;-74
2023/01/25 06:34:05;;;;;;;5.45;3.33;;;8.00;96.70;;;;;;4959646;28;20053;-73
2023/01/25 06:36:33;;;;;;;4.10;3.40;;;8.00;96.70;;;;;;4960830;28;20110;-75
2023/01/25 06:39:02;;;;;;;5.03;3.20;;;8.10;96.70;;;;;;4956697;28;20040;-74
2023/01/25 06:41:30;;;;;;;3.40;1.85;;;8.10;96.70;;;;;;4960783;28;20130;-74
2023/01/25 06:44:00;;;;;;;2.35;1.70;;;8.10;96.70;;;;;;4954066;28;20195;-73
2023/01/25 06:46:30;;;;;;;2.70;1.42;;;8.10;96.70;;;;;;4952197;28;20039;-76
2023/01/25 06:48:58;;;;;;;3.50;1.23;;;8.20;96.70;;;;;;4958727;28;20058;-74
2023/01/25 06:51:26;;;;;;;1.17;0.60;;;8.20;96.70;;;;;;4958220;28;20046;-74
2023/01/25 06:53:54;;;;;;;1.98;0.73;;;8.20;96.70;;;;;;4966345;28;20046;-74
2023/01/25 06:56:23;;;;;;;2.13;0.98;;;8.20;96.70;;;;;;4965591;28;20460;-78
2023/01/25 06:58:51;;;;;;;1.48;0.70;;;8.30;96.70;;;;;;4959423;28;20053;-75
2023/01/25 07:01:25;;;;;;;1.35;0.68;;;8.30;96.70;;;;;;4953925;28;20180;-74
2023/01/25 07:03:55;;;;;;;0.80;0.50;;;8.30;96.70;;;;;;4957999;28;20125;-75
2023/01/25 07:06:24;;;;;;;1.30;0.50;;;8.40;96.70;;;;;;4956872;28;20039;-75
2023/01/25 07:08:52;;;;;;;1.02;0.60;;;8.50;96.70;;;;;;4947408;28;20058;-74
2023/01/25 07:11:20;;;;;;;0.82;0.43;;;8.60;96.70;;;;;;4964318;28;20508;-73
2023/01/25 07:13:48;;;;;;;0.82;0.43;;;8.70;96.70;;;;;;4950157;28;20050;-75
2023/01/25 07:16:18;;;;;;;0.98;0.60;;;8.70;96.70;;;;;;4956054;28;20117;-74
2023/01/25 07:18:48;;;;;;;0.90;0.60;;;8.80;96.70;;;;;;4955333;28;20038;-75
2023/01/25 07:21:19;;;;;;;2.50;0.60;;;8.80;96.70;;;;;;4955864;28;20442;-75
2023/01/25 07:23:48;;;;;;;1.58;0.60;;;8.90;96.70;;;;;;4955430;28;20150;-74
2023/01/25 07:26:20;;;;;;;2.50;0.50;;;8.90;96.70;;;;;;4960255;28;20126;-74
2023/01/25 07:28:49;;;;;;;1.30;0.63;;;8.90;96.70;;;;;;4954292;28;20031;-74
2023/01/25 07:31:18;;;;;;;0.52;0.30;;;9.00;96.70;;;;;;4960626;28;20401;-74
2023/01/25 07:33:49;;;;;;;0.88;0.40;;;9.00;96.70;;;;;;4964006;28;20523;-76
2023/01/25 07:36:18;;;;;;;1.50;0.70;;;9.00;96.70;;;;;;4962940;28;20059;-75
2023/01/25 07:38:46;;;;;;;0.90;0.55;;;9.10;96.70;;;;;;4964118;28;20622;-77
2023/01/25 07:41:15;;;;;;;1.17;0.63;;;9.10;96.70;;;;;;4963483;28;20138;-74
2023/01/25 07:43:43;;;;;;;0.90;0.63;;;9.10;96.70;;;;;;4964146;28;20121;-75
2023/01/25 07:46:12;;;;;;;0.82;0.40;;;9.20;96.70;;;;;;4963735;28;20055;-75
2023/01/25 07:48:44;;;;;;;1.23;0.50;;;9.20;96.70;;;;;;4947367;28;20719;-75
2023/01/25 07:51:25;;;;;;;0.95;0.45;;;9.30;96.70;;;;;;4957140;28;20047;-73
2023/01/25 07:53:55;;;;;;;1.08;0.57;;;9.30;96.70;;;;;;4964131;28;20071;-76
2023/01/25 07:56:25;;;;;;;0.45;0.30;;;9.40;96.70;;;;;;4954649;28;20051;-74
2023/01/25 07:58:54;;;;;;;1.67;0.30;;;9.40;96.70;;;;;;4977064;28;20047;-74
2023/01/25 08:01:23;;;;;;;0.82;0.40;;;9.40;96.70;;;;;;4962127;28;20600;-73
2023/01/25 08:03:51;;;;;;;2.25;0.85;;;9.50;96.70;;;;;;4955453;28;20474;-74
2023/01/25 08:06:26;;;;;;;2.25;0.80;;;9.50;96.70;;;;;;4954846;28;20122;-75
2023/01/25 08:08:54;;;;;;;2.67;0.80;;;9.50;96.70;;;;;;4944729;28;20115;-74
2023/01/25 08:11:24;;;;;;;5.00;2.90;;;9.60;96.70;;;;;;4961330;28;20046;-75
2023/01/25 08:13:52;;;;;;;15.07;8.73;;;9.60;96.70;;;;;;4961497;28;20050;-73
2023/01/25 08:16:23;;;;;;;18.17;11.50;;;9.70;96.70;;;;;;4964692;28;20066;-75
2023/01/25 08:18:53;;;;;;;8.00;3.25;;;9.70;96.70;;;;;;4962887;28;20428;-74
2023/01/25 08:21:23;;;;;;;4.28;3.03;;;9.70;96.70;;;;;;4957432;28;20070;-74
2023/01/25 08:23:52;;;;;;;6.65;4.72;;;9.80;96.70;;;;;;4963269;28;20069;-74
2023/01/25 08:26:20;;;;;;;6.63;4.57;;;9.80;96.70;;;;;;4962072;28;20039;-74
2023/01/25 08:28:48;;;;;;;3.08;2.55;;;10.00;96.70;;;;;;4946705;28;20569;-74
2023/01/25 08:31:18;;;;;;;2.38;1.55;;;10.10;96.70;;;;;;4956455;28;20599;-74
2023/01/25 08:33:47;;;;;;;2.13;1.30;;;10.20;96.70;;;;;;4962396;28;20117;-74
2023/01/25 08:36:17;;;;;;;2.38;1.02;;;10.20;96.70;;;;;;4955858;28;20043;-74
2023/01/25 08:38:51;;;;;;;4.85;2.40;;;10.30;96.70;;;;;;4943698;28;20047;-74
2023/01/25 08:41:21;;;;;;;1.75;1.00;;;10.50;96.70;;;;;;4951588;28;20054;-74
2023/01/25 08:43:52;;;;;;;0.65;0.47;;;10.60;96.70;;;;;;4944409;28;20696;-74
2023/01/25 08:46:22;;;;;;;1.27;0.75;;;10.60;96.70;;;;;;4953164;28;20115;-77
2023/01/25 08:48:53;;;;;;;2.05;0.90;;;10.70;96.70;;;;;;4963393;28;20039;-73
2023/01/25 08:51:23;;;;;;;1.95;1.00;;;10.70;96.70;;;;;;4961528;28;20051;-73
2023/01/25 08:53:51;;;;;;;1.33;0.70;;;10.70;96.70;;;;;;4949689;28;20067;-73
2023/01/25 08:56:20;;;;;;;1.25;0.80;;;10.80;96.70;;;;;;4949562;28;20428;-73
2023/01/25 08:58:50;;;;;;;1.00;0.65;;;10.90;96.70;;;;;;4964476;28;20049;-73
2023/01/25 09:01:19;;;;;;;2.80;0.95;;;10.90;96.70;;;;;;4978286;28;20530;-73
2023/01/25 09:03:48;;;;;;;3.67;0.65;;;10.90;96.70;;;;;;4964031;28;20055;-76
2023/01/25 09:06:19;;;;;;;0.73;0.50;;;10.90;96.70;;;;;;4944049;28;20047;-78
2023/01/25 09:08:47;;;;;;;1.92;0.60;;;10.90;96.70;;;;;;4962894;28;20873;-74
2023/01/25 09:11:17;;;;;;;1.27;0.80;;;10.90;96.70;;;;;;4956127;28;20047;-73
2023/01/25 09:13:47;;;;;;;2.10;0.80;;;10.90;96.70;;;;;;4951744;28;20062;-74
2023/01/25 09:16:17;;;;;;;1.23;0.50;;;10.70;96.70;;;;;;4947037;28;20051;-74
2023/01/25 09:18:46;;;;;;;1.40;0.68;;;10.60;96.70;;;;;;4963652;28;20054;-73
2023/01/25 09:21:17;;;;;;;0.73;0.50;;;10.60;96.70;;;;;;4963355;28;20042;-78
2023/01/25 09:23:48;;;;;;;0.90;0.55;;;10.50;96.70;;;;;;4962241;28;20061;-78
2023/01/25 09:26:33;;;;;;;2.55;0.77;;;10.50;96.70;;;;;;4955585;28;20057;-78
2023/01/25 09:29:02;;;;;;;1.38;0.90;;;10.50;96.70;;;;;;4946758;28;20043;-77
2023/01/25 09:31:30;;;;;;;2.35;1.20;;;10.60;96.70;;;;;;4946992;28;20410;-78
2023/01/25 09:34:11;;;;;;;0.80;0.50;;;10.70;96.70;;;;;;4951978;28;20075;-73
2023/01/25 09:36:39;;;;;;;4.55;2.70;;;10.80;96.70;;;;;;4950670;28;20050;-74
2023/01/25 09:39:11;;;;;;;2.15;1.58;;;10.90;96.70;;;;;;4953720;28;20042;-80
2023/01/25 09:42:11;;;;;;;1.65;0.73;;;11.10;96.70;;;;;;4957700;28;20117;-74
2023/01/25 09:45:04;;;;;;;1.02;0.70;;;11.20;96.70;;;;;;4954089;28;20054;-75
2023/01/25 09:47:42;;;;;;;1.15;0.63;;;11.20;96.70;;;;;;4955023;28;20085;-75
2023/01/25 09:50:32;;;;;;;1.58;0.70;;;11.30;96.70;;;;;;4945691;28;20409;-75
2023/01/25 09:53:20;;;;;;;1.15;0.50;;;11.30;96.70;;;;;;4963386;28;20051;-76
2023/01/25 09:55:52;;;;;;;1.73;0.90;;;11.30;96.70;;;;;;4948674;28;20373;-75
2023/01/25 09:58:27;;;;;;;2.25;0.73;;;11.30;96.70;;;;;;4947052;28;20159;-76
2023/01/25 10:01:14;;;;;;;1.73;1.20;;;11.20;96.70;;;;;;4948316;28;20051;-76
2023/01/25 10:03:51;;;;;;;1.40;0.90;;;11.30;96.70;;;;;;4964991;28;20102;-73
2023/01/25 10:06:22;;;;;;;1.55;0.77;;;11.30;96.70;;;;;;4968103;28;20054;-75
2023/01/25 10:08:58;;;;;;;1.35;0.90;;;11.30;96.70;;;;;;4957004;28;20047;-73
2023/01/25 10:11:29;;;;;;;1.60;0.90;;;11.40;96.70;;;;;;4956521;28;20050;-75
2023/01/25 10:13:57;;;;;;;2.13;0.98;;;11.50;96.70;;;;;;4965949;28;20070;-75
2023/01/25 10:16:55;;;;;;;1.17;0.80;;;11.50;96.70;;;;;;4966964;28;20059;-75
2023/01/25 10:19:34;;;;;;;2.08;1.05;;;11.50;96.70;;;;;;4965008;28;20065;-75
2023/01/25 10:22:10;;;;;;;1.45;0.75;;;11.60;96.70;;;;;;4961746;28;20496;-75
2023/01/25 10:25:17;;;;;;;2.78;0.90;;;11.60;96.70;;;;;;4965103;28;20066;-76
2023/01/25 10:27:53;;;;;;;1.88;0.90;;;11.70;96.70;;;;;;4965768;28;20507;-75
2023/01/25 10:30:26;;;;;;;2.33;1.00;;;11.70;96.70;;;;;;4957462;28;20043;-74
2023/01/25 10:32:59;;;;;;;2.35;1.20;;;11.80;96.70;;;;;;4964665;28;20295;-74
2023/01/25 10:35:31;;;;;;;1.58;1.10;;;11.90;96.70;;;;;;4963076;28;20409;-74
2023/01/25 10:38:08;;;;;;;2.55;1.05;;;11.90;96.70;;;;;;4959559;28;20047;-74
2023/01/25 10:40:42;;;;;;;7.00;2.42;;;12.00;96.70;;;;;;4949659;28;20047;-74
2023/01/25 10:43:16;;;;;;;2.45;1.02;;;12.00;96.70;;;;;;4955384;28;20039;-77
2023/01/25 10:45:45;;;;;;;2.38;1.30;;;12.10;96.70;;;;;;4964754;28;20112;-77
2023/01/25 10:48:18;;;;;;;1.25;0.90;;;11.90;96.70;;;;;;4965193;28;20366;-78
2023/01/25 10:50:48;;;;;;;2.60;1.30;;;11.90;96.70;;;;;;4966021;28;20054;-78
2023/01/25 10:53:29;;;;;;;1.77;1.00;;;12.00;96.70;;;;;;4964803;28;20066;-78
2023/01/25 10:56:10;;;;;;;2.65;1.48;;;11.90;96.70;;;;;;4979355;28;20062;-78
2023/01/25 10:58:39;;;;;;;2.70;0.95;;;12.00;96.70;;;;;;4955750;28;20047;-78
2023/01/25 11:01:11;;;;;;;2.83;1.10;;;12.00;96.70;;;;;;4965594;28;20046;-78
2023/01/25 11:03:43;;;;;;;2.65;1.10;;;12.00;96.70;;;;;;4965050;28;20130;-78
2023/01/25 11:06:12;;;;;;;7.70;1.48;;;12.10;96.70;;;;;;4957552;28;20050;-77
2023/01/25 11:08:41;;;;;;;3.05;1.85;;;12.20;96.70;;;;;;4954267;28;20046;-79
2023/01/25 11:11:24;;;;;;;3.17;1.20;;;12.10;96.70;;;;;;4958189;28;20065;-78
2023/01/25 11:13:56;;;;;;;1.83;1.10;;;12.10;96.70;;;;;;4964408;28;20039;-78
2023/01/25 11:16:36;;;;;;;1.80;1.35;;;12.10;96.70;;;;;;4954130;28;20047;-78
2023/01/25 11:19:25;;;;;;;3.13;1.10;;;12.20;96.70;;;;;;4959891;28;20042;-77
2023/01/25 11:21:54;;;;;;;1.98;1.30;;;12.10;96.70;;;;;;4962293;28;20047;-77
2023/01/25 11:24:26;;;;;;;2.83;1.38;;;12.10;96.70;;;;;;4952855;28;20058;-74
2023/01/25 11:27:13;;;;;;;3.10;1.30;;;12.20;96.70;;;;;;4962860;28;20074;-75
2023/01/25 11:29:41;;;;;;;1.58;1.10;;;12.20;96.70;;;;;;4960793;28;20051;-74
2023/01/25 11:32:20;;;;;;;2.92;1.30;;;12.20;96.70;;;;;;4959621;28;20053;-74
2023/01/25 11:34:50;;;;;;;1.92;1.50;;;12.20;96.70;;;;;;4953263;28;20509;-75
2023/01/25 11:37:31;;;;;;;1.95;1.25;;;12.20;96.70;;;;;;4959685;28;20282;-74
2023/01/25 11:40:11;;;;;;;4.05;1.98;;;12.30;96.70;;;;;;4945404;28;20047;-79
2023/01/25 11:42:51;;;;;;;2.55;1.23;;;12.40;96.70;;;;;;4960110;28;20050;-74
2023/01/25 11:46:00;;;;;;;2.67;1.30;;;12.60;96.70;;;;;;4963583;28;20146;-73
2023/01/25 11:48:45;;;;;;;2.58;1.30;;;12.50;96.70;;;;;;4938377;28;20455;-73
2023/01/25 11:51:23;;;;;;;3.83;1.75;;;12.40;96.70;;;;;;4949220;28;20065;-73
2023/01/25 11:54:17;;;;;;;3.20;1.55;;;12.30;96.70;;;;;;4951728;28;20043;-74
2023/01/25 11:56:57;;;;;;;2.92;1.38;;;12.40;96.70;;;;;;4955485;28;20406;-73
2023/01/25 11:59:42;;;;;;;1.77;1.48;;;12.40;96.70;;;;;;4953282;28;20047;-74
2023/01/25 12:02:49;;;;;;;3.22;1.60;;;12.50;96.70;;;;;;4961517;28;20376;-75
2023/01/25 12:05:38;;;;;;;4.13;1.50;;;12.60;96.70;;;;;;4913946;28;20066;-73
2023/01/25 12:08:21;;;;;;;2.33;1.60;;;12.60;96.70;;;;;;4946252;28;20094;-75
2023/01/25 12:10:59;;;;;;;3.60;1.75;;;12.60;96.70;;;;;;4934221;28;20058;-77
2023/01/25 12:13:39;;;;;;;3.08;1.30;;;12.50;96.70;;;;;;4961474;28;20516;-74
2023/01/25 12:16:36;;;;;;;2.42;1.35;;;12.30;96.70;;;;;;4962176;28;20042;-74
2023/01/25 12:19:33;;;;;;;1.92;1.30;;;12.50;96.70;;;;;;4962109;28;20053;-73
2023/01/25 12:22:26;;;;;;;2.20;1.45;;;12.60;96.70;;;;;;4954566;28;20118;-75
2023/01/25 12:25:02;;;;;;;2.00;1.20;;;12.70;96.70;;;;;;4951285;28;20090;-74
2023/01/25 12:28:31;;;;;;;3.22;1.20;;;12.70;96.70;;;;;;4954246;28;20042;-74
2023/01/25 12:31:18;;;;;;;2.05;1.30;;;12.80;96.70;;;;;;4947880;28;20085;-74
2023/01/25 12:33:51;;;;;;;2.72;1.13;;;12.90;96.70;;;;;;4962435;28;20556;-74
2023/01/25 12:36:26;;;;;;;2.75;1.17;;;13.00;96.70;;;;;;4950423;28;20497;-74
2023/01/25 12:38:58;;;;;;;2.67;1.30;;;13.10;96.70;;;;;;4956372;28;20047;-73
2023/01/25 12:41:35;;;;;;;2.00;1.27;;;13.10;96.70;;;;;;4958438;28;20050;-74
2023/01/25 12:44:10;;;;;;;2.72;1.20;;;13.20;96.70;;;;;;4962100;28;20138;-73
2023/01/25 12:46:42;;;;;;;2.42;1.80;;;13.10;96.70;;;;;;4955448;28;20047;-78
2023/01/25 12:49:18;;;;;;;3.10;1.88;;;13.20;96.70;;;;;;4947957;28;20126;-74
2023/01/25 12:51:47;;;;;;;2.90;1.98;;;13.30;96.70;;;;;;4955662;28;21224;-74
2023/01/25 12:54:21;;;;;;;2.45;1.67;;;13.40;96.70;;;;;;4978153;28;20580;-74
2023/01/25 12:57:01;;;;;;;3.38;1.77;;;13.40;96.70;;;;;;4962550;28;20469;-75
2023/01/25 12:59:36;;;;;;;2.83;1.33;;;13.50;96.70;;;;;;4962469;28;20066;-75
2023/01/25 13:02:21;;;;;;;1.88;1.35;;;13.60;96.70;;;;;;4956367;28;20047;-74
2023/01/25 13:05:01;;;;;;;2.40;1.25;;;13.50;96.70;;;;;;4961134;28;20412;-74
2023/01/25 13:07:35;;;;;;;2.55;1.60;;;13.30;96.70;;;;;;4962077;28;20042;-74
2023/01/25 13:10:13;;;;;;;3.45;1.60;;;13.20;96.70;;;;;;4958396;28;20073;-75
2023/01/25 13:12:53;;;;;;;2.25;1.30;;;12.90;96.70;;;;;;4972430;28;20047;-72
2023/01/25 13:15:39;;;;;;;2.05;1.40;;;12.90;96.70;;;;;;4959225;28;20106;-73
2023/01/25 13:18:35;;;;;;;2.13;1.10;;;13.10;96.70;;;;;;4958804;28;20047;-75
2023/01/25 13:21:10;;;;;;;3.17;1.57;;;13.10;96.70;;;;;;4962887;28;20478;-72
2023/01/25 13:23:44;;;;;;;3.88;1.75;;;13.20;96.70;;;;;;4962772;28;20306;-72
2023/01/25 13:26:44;;;;;;;2.78;1.80;;;13.30;96.70;;;;;;4958754;28;20050;-73
2023/01/25 13:29:52;;;;;;;3.25;1.80;;;13.30;96.70;;;;;;4962731;28;20038;-73
2023/01/25 13:32:54;;;;;;;4.00;1.48;;;13.30;96.70;;;;;;4959580;28;20046;-75